sensor_id;sensor_type;location;lat;lon;timestamp;temperature;humidity
39675;DHT22;27790;50.840;4.386;2023-05-10T00:00:00;15.30;99.90
39675;DHT22;27790;50.840;4.386;2023-05-10T00:02:26;15.30;99.90
39675;DHT22;27790;50.840;4.386;2023-05-10T00:04:52;15.30;99.90
39675;DHT22;27790;50.840;4.386;2023-05-10T00:07:17;15.20;99.90
39675;DHT22;27790;50.840;4.386;2023-05-10T00:09:43;15.30;99.90
39675;DHT22;27790;50.840;4.386;2023-05-10T00:12:09;15.30;99.90
39675;DHT22;27790;50.840;4.386;2023-05-10T00:14:35;15.30;99.90
39675;DHT22;27790;50.840;4.386;2023-05-10T00:17:01;15.40;99.90
39675;DHT22;27790;50.840;4.386;2023-05-10T00:19:26;15.40;99.90
39675;DHT22;27790;50.840;4.386;2023-05-10T00:21:52;15.50;99.90
39675;DHT22;27790;50.840;4.386;2023-05-10T00:24:18;15.50;99.90
39675;DHT22;27790;50.840;4.386;2023-05-10T00:26:44;15.50;99.90
39675;DHT22;27790;50.840;4.386;2023-05-10T00:29:10;15.50;99.90
39675;DHT22;27790;50.840;4.386;2023-05-10T00:31:35;15.50;99.90
39675;DHT22;27790;50.840;4.386;2023-05-10T00:34:01;15.50;99.90
39675;DHT22;27790;50.840;4.386;2023-05-10T00:36:26;15.50;99.90
39675;DHT22;27790;50.840;4.386;2023-05-10T00:38:53;15.50;99.90
39675;DHT22;27790;50.840;4.386;2023-05-10T00:41:19;15.50;99.90
39675;DHT22;27790;50.840;4.386;2023-05-10T00:43:46;15.50;99.90
39675;DHT22;27790;50.840;4.386;2023-05-10T00:46:12;15.40;99.90
39675;DHT22;27790;50.840;4.386;2023-05-10T00:48:39;15.50;99.90
39675;DHT22;27790;50.840;4.386;2023-05-10T00:51:05;15.50;99.90
39675;DHT22;27790;50.840;4.386;2023-05-10T00:53:31;15.50;99.90
39675;DHT22;27790;50.840;4.386;2023-05-10T00:55:58;15.50;99.90
39675;DHT22;27790;50.840;4.386;2023-05-10T00:58:24;15.50;99.90
39675;DHT22;27790;50.840;4.386;2023-05-10T01:00:55;15.50;99.90
39675;DHT22;27790;50.840;4.386;2023-05-10T01:03:21;15.40;99.90
39675;DHT22;27790;50.840;4.386;2023-05-10T01:05:47;15.40;99.90
39675;DHT22;27790;50.840;4.386;2023-05-10T01:08:12;15.40;99.90
39675;DHT22;27790;50.840;4.386;2023-05-10T01:10:38;15.40;99.90
39675;DHT22;27790;50.840;4.386;2023-05-10T01:13:04;15.40;99.90
39675;DHT22;27790;50.840;4.386;2023-05-10T01:15:30;15.50;99.90
39675;DHT22;27790;50.840;4.386;2023-05-10T01:17:56;15.50;99.90
39675;DHT22;27790;50.840;4.386;2023-05-10T01:20:22;15.50;99.90
39675;DHT22;27790;50.840;4.386;2023-05-10T01:25:58;15.50;99.90
39675;DHT22;27790;50.840;4.386;2023-05-10T01:34:16;15.50;99.90
39675;DHT22;27790;50.840;4.386;2023-05-10T01:36:48;15.50;99.90
39675;DHT22;27790;50.840;4.386;2023-05-10T01:39:38;15.50;99.90
39675;DHT22;27790;50.840;4.386;2023-05-10T01:42:10;15.40;99.90
39675;DHT22;27790;50.840;4.386;2023-05-10T01:50:02;15.40;99.90
39675;DHT22;27790;50.840;4.386;2023-05-10T01:52:38;15.40;99.90
39675;DHT22;27790;50.840;4.386;2023-05-10T01:55:09;15.30;99.90
39675;DHT22;27790;50.840;4.386;2023-05-10T01:57:37;15.30;99.90
39675;DHT22;27790;50.840;4.386;2023-05-10T02:00:08;15.30;99.90
39675;DHT22;27790;50.840;4.386;2023-05-10T02:02:40;15.30;99.90
39675;DHT22;27790;50.840;4.386;2023-05-10T02:05:08;15.30;99.90
39675;DHT22;27790;50.840;4.386;2023-05-10T02:07:35;15.30;99.90
39675;DHT22;27790;50.840;4.386;2023-05-10T02:10:03;15.30;99.90
39675;DHT22;27790;50.840;4.386;2023-05-10T02:12:32;15.30;99.90
39675;DHT22;27790;50.840;4.386;2023-05-10T02:15:02;15.40;99.90
39675;DHT22;27790;50.840;4.386;2023-05-10T02:17:31;15.40;99.90
39675;DHT22;27790;50.840;4.386;2023-05-10T02:19:59;15.30;99.90
39675;DHT22;27790;50.840;4.386;2023-05-10T02:22:26;15.30;99.90
39675;DHT22;27790;50.840;4.386;2023-05-10T02:24:54;15.30;99.90
39675;DHT22;27790;50.840;4.386;2023-05-10T02:27:22;15.30;99.90
39675;DHT22;27790;50.840;4.386;2023-05-10T02:29:49;15.30;99.90
39675;DHT22;27790;50.840;4.386;2023-05-10T02:32:16;15.30;99.90
39675;DHT22;27790;50.840;4.386;2023-05-10T02:34:42;15.30;99.90
39675;DHT22;27790;50.840;4.386;2023-05-10T02:37:10;15.30;99.90
39675;DHT22;27790;50.840;4.386;2023-05-10T02:39:36;15.30;99.90
39675;DHT22;27790;50.840;4.386;2023-05-10T02:42:04;15.20;99.90
39675;DHT22;27790;50.840;4.386;2023-05-10T02:44:30;15.20;99.90
39675;DHT22;27790;50.840;4.386;2023-05-10T02:46:59;15.20;99.90
39675;DHT22;27790;50.840;4.386;2023-05-10T02:49:25;15.20;99.90
39675;DHT22;27790;50.840;4.386;2023-05-10T02:51:55;15.20;99.90
39675;DHT22;27790;50.840;4.386;2023-05-10T02:54:28;15.10;99.90
39675;DHT22;27790;50.840;4.386;2023-05-10T02:56:58;15.10;99.90
39675;DHT22;27790;50.840;4.386;2023-05-10T02:59:24;15.10;99.90
39675;DHT22;27790;50.840;4.386;2023-05-10T03:01:50;15.10;99.90
39675;DHT22;27790;50.840;4.386;2023-05-10T03:04:16;15.10;99.90
39675;DHT22;27790;50.840;4.386;2023-05-10T03:06:41;15.10;99.90
39675;DHT22;27790;50.840;4.386;2023-05-10T03:09:08;15.20;99.90
39675;DHT22;27790;50.840;4.386;2023-05-10T03:18:04;15.10;99.90
39675;DHT22;27790;50.840;4.386;2023-05-10T03:20:11;15.00;99.90
39675;DHT22;27790;50.840;4.386;2023-05-10T03:22:40;14.90;99.90
39675;DHT22;27790;50.840;4.386;2023-05-10T03:25:09;14.80;99.90
39675;DHT22;27790;50.840;4.386;2023-05-10T03:27:39;14.70;99.90
39675;DHT22;27790;50.840;4.386;2023-05-10T03:30:08;14.70;99.90
39675;DHT22;27790;50.840;4.386;2023-05-10T03:32:34;14.70;99.90
39675;DHT22;27790;50.840;4.386;2023-05-10T03:35:00;14.60;99.90
39675;DHT22;27790;50.840;4.386;2023-05-10T03:37:25;14.70;99.90
39675;DHT22;27790;50.840;4.386;2023-05-10T03:39:51;14.70;99.90
39675;DHT22;27790;50.840;4.386;2023-05-10T03:42:17;14.80;99.90
39675;DHT22;27790;50.840;4.386;2023-05-10T03:44:43;14.90;99.90
39675;DHT22;27790;50.840;4.386;2023-05-10T03:47:08;14.90;99.90
39675;DHT22;27790;50.840;4.386;2023-05-10T03:49:34;14.80;99.90
39675;DHT22;27790;50.840;4.386;2023-05-10T03:52:00;14.80;99.90
39675;DHT22;27790;50.840;4.386;2023-05-10T03:54:25;14.90;99.90
39675;DHT22;27790;50.840;4.386;2023-05-10T03:56:51;14.90;99.90
39675;DHT22;27790;50.840;4.386;2023-05-10T03:59:17;14.90;99.90
39675;DHT22;27790;50.840;4.386;2023-05-10T04:01:42;14.90;99.90
39675;DHT22;27790;50.840;4.386;2023-05-10T04:04:08;14.90;99.90
39675;DHT22;27790;50.840;4.386;2023-05-10T04:06:33;14.90;99.90
39675;DHT22;27790;50.840;4.386;2023-05-10T04:08:59;14.90;99.90
39675;DHT22;27790;50.840;4.386;2023-05-10T04:11:26;14.90;99.90
39675;DHT22;27790;50.840;4.386;2023-05-10T04:13:53;14.90;99.90
39675;DHT22;27790;50.840;4.386;2023-05-10T04:16:18;15.00;99.90
39675;DHT22;27790;50.840;4.386;2023-05-10T04:18:44;15.00;99.90
39675;DHT22;27790;50.840;4.386;2023-05-10T04:21:13;15.10;99.90
39675;DHT22;27790;50.840;4.386;2023-05-10T04:23:39;15.10;99.90
39675;DHT22;27790;50.840;4.386;2023-05-10T04:26:05;15.00;99.90
39675;DHT22;27790;50.840;4.386;2023-05-10T04:28:30;15.10;99.90
39675;DHT22;27790;50.840;4.386;2023-05-10T04:31:08;15.00;99.90
39675;DHT22;27790;50.840;4.386;2023-05-10T04:33:35;15.00;99.90
39675;DHT22;27790;50.840;4.386;2023-05-10T04:36:01;14.90;99.90
39675;DHT22;27790;50.840;4.386;2023-05-10T04:38:27;14.90;99.90
39675;DHT22;27790;50.840;4.386;2023-05-10T04:40:53;14.90;99.90
39675;DHT22;27790;50.840;4.386;2023-05-10T04:43:18;14.90;99.90
39675;DHT22;27790;50.840;4.386;2023-05-10T04:45:44;15.00;99.90
39675;DHT22;27790;50.840;4.386;2023-05-10T04:48:10;15.00;99.90
39675;DHT22;27790;50.840;4.386;2023-05-10T04:50:37;15.00;99.90
39675;DHT22;27790;50.840;4.386;2023-05-10T04:53:02;15.00;99.90
39675;DHT22;27790;50.840;4.386;2023-05-10T04:55:28;15.00;99.90
39675;DHT22;27790;50.840;4.386;2023-05-10T04:57:53;15.00;99.90
39675;DHT22;27790;50.840;4.386;2023-05-10T05:00:22;15.00;99.90
39675;DHT22;27790;50.840;4.386;2023-05-10T05:02:48;15.10;99.90
39675;DHT22;27790;50.840;4.386;2023-05-10T05:05:14;15.00;99.90
39675;DHT22;27790;50.840;4.386;2023-05-10T05:07:39;15.10;99.90
39675;DHT22;27790;50.840;4.386;2023-05-10T05:10:08;15.00;99.90
39675;DHT22;27790;50.840;4.386;2023-05-10T05:12:35;15.00;99.90
39675;DHT22;27790;50.840;4.386;2023-05-10T05:15:01;15.00;99.90
39675;DHT22;27790;50.840;4.386;2023-05-10T05:17:26;15.00;99.90
39675;DHT22;27790;50.840;4.386;2023-05-10T05:19:52;15.00;99.90
39675;DHT22;27790;50.840;4.386;2023-05-10T05:22:18;15.10;99.90
39675;DHT22;27790;50.840;4.386;2023-05-10T05:24:45;15.00;99.90
39675;DHT22;27790;50.840;4.386;2023-05-10T05:27:11;15.10;99.90
39675;DHT22;27790;50.840;4.386;2023-05-10T05:29:36;15.00;99.90
39675;DHT22;27790;50.840;4.386;2023-05-10T05:32:02;15.00;99.90
39675;DHT22;27790;50.840;4.386;2023-05-10T05:34:27;15.00;99.90
39675;DHT22;27790;50.840;4.386;2023-05-10T05:36:53;14.90;99.90
39675;DHT22;27790;50.840;4.386;2023-05-10T05:39:19;14.90;99.90
39675;DHT22;27790;50.840;4.386;2023-05-10T05:41:45;14.90;99.90
39675;DHT22;27790;50.840;4.386;2023-05-10T05:44:11;14.90;99.90
39675;DHT22;27790;50.840;4.386;2023-05-10T05:46:37;14.80;99.90
39675;DHT22;27790;50.840;4.386;2023-05-10T05:49:02;14.70;99.90
39675;DHT22;27790;50.840;4.386;2023-05-10T05:51:28;14.70;99.90
39675;DHT22;27790;50.840;4.386;2023-05-10T05:53:53;14.70;99.90
39675;DHT22;27790;50.840;4.386;2023-05-10T05:56:19;14.70;99.90
39675;DHT22;27790;50.840;4.386;2023-05-10T05:58:50;14.80;99.90
39675;DHT22;27790;50.840;4.386;2023-05-10T06:01:16;14.60;99.90
39675;DHT22;27790;50.840;4.386;2023-05-10T06:03:41;14.60;99.90
39675;DHT22;27790;50.840;4.386;2023-05-10T06:06:07;14.60;99.90
39675;DHT22;27790;50.840;4.386;2023-05-10T06:08:33;14.70;99.90
39675;DHT22;27790;50.840;4.386;2023-05-10T06:10:59;14.70;99.90
39675;DHT22;27790;50.840;4.386;2023-05-10T06:13:25;14.60;99.90
39675;DHT22;27790;50.840;4.386;2023-05-10T06:16:00;14.70;99.90
39675;DHT22;27790;50.840;4.386;2023-05-10T06:18:26;14.70;99.90
39675;DHT22;27790;50.840;4.386;2023-05-10T06:20:52;14.70;99.90
39675;DHT22;27790;50.840;4.386;2023-05-10T06:23:17;14.70;99.90
39675;DHT22;27790;50.840;4.386;2023-05-10T06:25:43;14.70;99.90
39675;DHT22;27790;50.840;4.386;2023-05-10T06:28:09;14.60;99.90
39675;DHT22;27790;50.840;4.386;2023-05-10T06:30:36;14.60;99.90
39675;DHT22;27790;50.840;4.386;2023-05-10T06:33:02;14.60;99.90
39675;DHT22;27790;50.840;4.386;2023-05-10T06:35:28;14.70;99.90
39675;DHT22;27790;50.840;4.386;2023-05-10T06:37:54;14.70;99.90
39675;DHT22;27790;50.840;4.386;2023-05-10T06:40:20;14.80;99.90
39675;DHT22;27790;50.840;4.386;2023-05-10T06:42:47;14.80;99.90
39675;DHT22;27790;50.840;4.386;2023-05-10T06:45:14;14.90;99.90
39675;DHT22;27790;50.840;4.386;2023-05-10T06:47:40;14.90;99.90
39675;DHT22;27790;50.840;4.386;2023-05-10T06:50:08;14.90;99.90
39675;DHT22;27790;50.840;4.386;2023-05-10T06:52:34;15.00;99.90
39675;DHT22;27790;50.840;4.386;2023-05-10T06:54:59;14.80;99.90
39675;DHT22;27790;50.840;4.386;2023-05-10T06:57:25;14.90;99.90
39675;DHT22;27790;50.840;4.386;2023-05-10T06:59:52;15.00;99.90
39675;DHT22;27790;50.840;4.386;2023-05-10T07:02:17;15.10;99.90
39675;DHT22;27790;50.840;4.386;2023-05-10T07:04:43;15.20;99.90
39675;DHT22;27790;50.840;4.386;2023-05-10T07:07:09;15.20;99.90
39675;DHT22;27790;50.840;4.386;2023-05-10T07:09:34;15.30;99.90
39675;DHT22;27790;50.840;4.386;2023-05-10T07:12:00;15.30;99.90
39675;DHT22;27790;50.840;4.386;2023-05-10T07:14:27;15.30;99.90
39675;DHT22;27790;50.840;4.386;2023-05-10T07:16:53;15.20;99.90
39675;DHT22;27790;50.840;4.386;2023-05-10T07:19:18;15.10;99.90
39675;DHT22;27790;50.840;4.386;2023-05-10T07:21:44;15.10;99.90
39675;DHT22;27790;50.840;4.386;2023-05-10T07:24:10;15.00;99.90
39675;DHT22;27790;50.840;4.386;2023-05-10T07:26:36;15.00;99.90
39675;DHT22;27790;50.840;4.386;2023-05-10T07:29:01;14.90;99.90
39675;DHT22;27790;50.840;4.386;2023-05-10T07:31:27;15.00;99.90
39675;DHT22;27790;50.840;4.386;2023-05-10T07:33:53;15.00;99.90
39675;DHT22;27790;50.840;4.386;2023-05-10T07:36:19;14.90;99.90
39675;DHT22;27790;50.840;4.386;2023-05-10T07:38:45;14.90;99.90
39675;DHT22;27790;50.840;4.386;2023-05-10T07:41:12;14.80;99.90
39675;DHT22;27790;50.840;4.386;2023-05-10T07:43:37;14.80;99.90
39675;DHT22;27790;50.840;4.386;2023-05-10T07:46:03;14.80;99.90
39675;DHT22;27790;50.840;4.386;2023-05-10T07:48:29;14.80;99.90
39675;DHT22;27790;50.840;4.386;2023-05-10T07:50:54;14.90;99.90
39675;DHT22;27790;50.840;4.386;2023-05-10T07:53:20;15.00;99.90
39675;DHT22;27790;50.840;4.386;2023-05-10T07:55:57;15.00;99.90
39675;DHT22;27790;50.840;4.386;2023-05-10T07:58:24;15.00;99.90
39675;DHT22;27790;50.840;4.386;2023-05-10T08:00:50;15.10;99.90
39675;DHT22;27790;50.840;4.386;2023-05-10T08:03:15;15.00;99.90
39675;DHT22;27790;50.840;4.386;2023-05-10T08:05:41;15.00;99.90
39675;DHT22;27790;50.840;4.386;2023-05-10T08:08:07;15.00;99.90
39675;DHT22;27790;50.840;4.386;2023-05-10T08:10:32;15.10;99.90
39675;DHT22;27790;50.840;4.386;2023-05-10T08:12:58;15.10;99.90
39675;DHT22;27790;50.840;4.386;2023-05-10T08:15:24;15.30;99.90
39675;DHT22;27790;50.840;4.386;2023-05-10T08:17:51;15.40;99.90
39675;DHT22;27790;50.840;4.386;2023-05-10T08:20:17;15.50;99.90
39675;DHT22;27790;50.840;4.386;2023-05-10T08:22:45;15.50;99.90
39675;DHT22;27790;50.840;4.386;2023-05-10T08:25:11;15.60;99.90
39675;DHT22;27790;50.840;4.386;2023-05-10T08:27:36;15.50;99.90
39675;DHT22;27790;50.840;4.386;2023-05-10T08:30:02;15.60;99.90
39675;DHT22;27790;50.840;4.386;2023-05-10T08:32:28;15.60;99.90
39675;DHT22;27790;50.840;4.386;2023-05-10T08:34:55;15.60;99.90
39675;DHT22;27790;50.840;4.386;2023-05-10T08:37:23;15.70;99.90
39675;DHT22;27790;50.840;4.386;2023-05-10T08:39:49;15.70;99.90
39675;DHT22;27790;50.840;4.386;2023-05-10T08:42:19;15.80;99.90
39675;DHT22;27790;50.840;4.386;2023-05-10T08:44:48;15.80;99.90
39675;DHT22;27790;50.840;4.386;2023-05-10T08:47:18;15.80;99.90
39675;DHT22;27790;50.840;4.386;2023-05-10T08:49:44;15.90;99.90
39675;DHT22;27790;50.840;4.386;2023-05-10T08:52:13;15.90;99.90
39675;DHT22;27790;50.840;4.386;2023-05-10T08:54:41;16.10;99.90
39675;DHT22;27790;50.840;4.386;2023-05-10T08:57:07;16.10;99.90
39675;DHT22;27790;50.840;4.386;2023-05-10T08:59:33;16.10;99.90
39675;DHT22;27790;50.840;4.386;2023-05-10T09:01:59;16.10;99.90
39675;DHT22;27790;50.840;4.386;2023-05-10T09:04:25;16.20;99.90
39675;DHT22;27790;50.840;4.386;2023-05-10T09:06:51;16.20;99.90
39675;DHT22;27790;50.840;4.386;2023-05-10T09:09:17;16.20;99.90
39675;DHT22;27790;50.840;4.386;2023-05-10T09:11:44;16.20;99.90
39675;DHT22;27790;50.840;4.386;2023-05-10T09:14:10;16.30;99.90
39675;DHT22;27790;50.840;4.386;2023-05-10T09:16:38;16.20;99.90
39675;DHT22;27790;50.840;4.386;2023-05-10T09:19:03;16.20;99.90
39675;DHT22;27790;50.840;4.386;2023-05-10T09:21:30;16.20;99.90
39675;DHT22;27790;50.840;4.386;2023-05-10T09:23:56;16.10;99.90
39675;DHT22;27790;50.840;4.386;2023-05-10T09:26:22;16.00;99.90
39675;DHT22;27790;50.840;4.386;2023-05-10T09:28:56;16.00;99.90
39675;DHT22;27790;50.840;4.386;2023-05-10T09:31:22;15.90;99.90
39675;DHT22;27790;50.840;4.386;2023-05-10T09:33:49;15.90;99.90
39675;DHT22;27790;50.840;4.386;2023-05-10T09:36:16;15.90;99.90
39675;DHT22;27790;50.840;4.386;2023-05-10T09:38:49;15.90;99.90
39675;DHT22;27790;50.840;4.386;2023-05-10T09:41:25;15.80;99.90
39675;DHT22;27790;50.840;4.386;2023-05-10T09:43:55;15.90;99.90
39675;DHT22;27790;50.840;4.386;2023-05-10T09:46:21;15.80;99.90
39675;DHT22;27790;50.840;4.386;2023-05-10T09:48:48;15.80;99.90
39675;DHT22;27790;50.840;4.386;2023-05-10T09:51:20;15.80;99.90
39675;DHT22;27790;50.840;4.386;2023-05-10T09:53:47;15.80;99.90
39675;DHT22;27790;50.840;4.386;2023-05-10T09:56:12;15.90;99.90
39675;DHT22;27790;50.840;4.386;2023-05-10T09:58:39;15.80;99.90
39675;DHT22;27790;50.840;4.386;2023-05-10T10:01:05;15.80;99.90
39675;DHT22;27790;50.840;4.386;2023-05-10T10:03:41;15.90;99.90
39675;DHT22;27790;50.840;4.386;2023-05-10T10:06:08;15.90;99.90
39675;DHT22;27790;50.840;4.386;2023-05-10T10:08:34;16.00;99.90
39675;DHT22;27790;50.840;4.386;2023-05-10T10:11:00;16.10;99.90
39675;DHT22;27790;50.840;4.386;2023-05-10T10:13:26;16.20;99.90
39675;DHT22;27790;50.840;4.386;2023-05-10T10:15:54;16.20;99.90
39675;DHT22;27790;50.840;4.386;2023-05-10T10:18:20;16.20;99.90
39675;DHT22;27790;50.840;4.386;2023-05-10T10:20:53;16.20;99.90
39675;DHT22;27790;50.840;4.386;2023-05-10T10:23:19;16.20;99.90
39675;DHT22;27790;50.840;4.386;2023-05-10T10:25:45;16.30;99.90
39675;DHT22;27790;50.840;4.386;2023-05-10T10:28:45;16.30;99.90
39675;DHT22;27790;50.840;4.386;2023-05-10T10:34:05;16.20;99.90
39675;DHT22;27790;50.840;4.386;2023-05-10T10:36:32;16.20;99.90
39675;DHT22;27790;50.840;4.386;2023-05-10T10:39:02;16.30;99.90
39675;DHT22;27790;50.840;4.386;2023-05-10T10:42:16;16.50;99.90
39675;DHT22;27790;50.840;4.386;2023-05-10T10:44:33;16.40;99.90
39675;DHT22;27790;50.840;4.386;2023-05-10T10:52:20;16.50;99.90
39675;DHT22;27790;50.840;4.386;2023-05-10T10:57:31;16.60;99.90
39675;DHT22;27790;50.840;4.386;2023-05-10T11:02:52;16.90;99.90
39675;DHT22;27790;50.840;4.386;2023-05-10T11:05:46;17.00;99.90
39675;DHT22;27790;50.840;4.386;2023-05-10T11:11:03;17.00;99.90
39675;DHT22;27790;50.840;4.386;2023-05-10T11:13:30;16.90;99.90
39675;DHT22;27790;50.840;4.386;2023-05-10T11:15:56;16.90;99.90
39675;DHT22;27790;50.840;4.386;2023-05-10T11:18:28;17.00;99.90
39675;DHT22;27790;50.840;4.386;2023-05-10T11:21:01;17.10;99.90
39675;DHT22;27790;50.840;4.386;2023-05-10T11:26:13;17.30;99.90
39675;DHT22;27790;50.840;4.386;2023-05-10T11:28:47;17.40;99.90
39675;DHT22;27790;50.840;4.386;2023-05-10T11:31:17;17.60;99.90
39675;DHT22;27790;50.840;4.386;2023-05-10T11:33:48;17.80;99.90
39675;DHT22;27790;50.840;4.386;2023-05-10T11:36:15;17.90;99.90
39675;DHT22;27790;50.840;4.386;2023-05-10T11:38:41;17.90;99.90
39675;DHT22;27790;50.840;4.386;2023-05-10T11:41:11;17.90;99.90
39675;DHT22;27790;50.840;4.386;2023-05-10T11:43:38;18.10;99.90
39675;DHT22;27790;50.840;4.386;2023-05-10T11:46:09;18.20;99.90
39675;DHT22;27790;50.840;4.386;2023-05-10T11:48:36;18.40;99.90
39675;DHT22;27790;50.840;4.386;2023-05-10T11:51:02;18.60;99.90
39675;DHT22;27790;50.840;4.386;2023-05-10T11:53:30;18.70;99.90
39675;DHT22;27790;50.840;4.386;2023-05-10T11:56:03;18.60;99.90
39675;DHT22;27790;50.840;4.386;2023-05-10T11:58:30;18.60;99.90
39675;DHT22;27790;50.840;4.386;2023-05-10T12:00:57;18.30;99.90
39675;DHT22;27790;50.840;4.386;2023-05-10T12:03:22;18.10;99.90
39675;DHT22;27790;50.840;4.386;2023-05-10T12:05:48;18.00;99.90
39675;DHT22;27790;50.840;4.386;2023-05-10T12:08:32;18.00;99.90
39675;DHT22;27790;50.840;4.386;2023-05-10T12:11:06;18.00;99.90
39675;DHT22;27790;50.840;4.386;2023-05-10T12:13:36;18.10;99.90
39675;DHT22;27790;50.840;4.386;2023-05-10T12:16:13;18.20;99.90
39675;DHT22;27790;50.840;4.386;2023-05-10T12:18:40;18.30;99.90
39675;DHT22;27790;50.840;4.386;2023-05-10T12:21:06;18.30;99.90
39675;DHT22;27790;50.840;4.386;2023-05-10T12:23:32;18.40;99.90
39675;DHT22;27790;50.840;4.386;2023-05-10T12:26:09;18.60;99.90
39675;DHT22;27790;50.840;4.386;2023-05-10T12:28:35;18.70;99.90
39675;DHT22;27790;50.840;4.386;2023-05-10T12:31:02;18.90;99.90
39675;DHT22;27790;50.840;4.386;2023-05-10T12:33:44;19.10;99.90
39675;DHT22;27790;50.840;4.386;2023-05-10T12:36:11;19.20;99.90
39675;DHT22;27790;50.840;4.386;2023-05-10T12:38:39;19.40;99.90
39675;DHT22;27790;50.840;4.386;2023-05-10T12:41:25;19.40;99.90
39675;DHT22;27790;50.840;4.386;2023-05-10T12:43:51;19.40;99.90
39675;DHT22;27790;50.840;4.386;2023-05-10T12:46:17;19.50;99.60
39675;DHT22;27790;50.840;4.386;2023-05-10T12:48:44;19.60;99.90
39675;DHT22;27790;50.840;4.386;2023-05-10T12:51:10;19.50;99.80
39675;DHT22;27790;50.840;4.386;2023-05-10T12:53:38;19.60;99.80
39675;DHT22;27790;50.840;4.386;2023-05-10T12:56:05;19.70;99.40
39675;DHT22;27790;50.840;4.386;2023-05-10T12:58:31;19.70;99.70
39675;DHT22;27790;50.840;4.386;2023-05-10T13:00:58;19.70;99.50
39675;DHT22;27790;50.840;4.386;2023-05-10T13:03:24;19.50;98.90
39675;DHT22;27790;50.840;4.386;2023-05-10T13:05:50;19.50;98.80
39675;DHT22;27790;50.840;4.386;2023-05-10T13:08:15;19.40;98.80
39675;DHT22;27790;50.840;4.386;2023-05-10T13:10:41;19.40;98.70
39675;DHT22;27790;50.840;4.386;2023-05-10T13:13:06;19.50;98.90
39675;DHT22;27790;50.840;4.386;2023-05-10T13:15:34;19.50;98.90
39675;DHT22;27790;50.840;4.386;2023-05-10T13:17:59;19.50;98.60
39675;DHT22;27790;50.840;4.386;2023-05-10T13:20:25;19.50;98.50
39675;DHT22;27790;50.840;4.386;2023-05-10T13:22:51;19.60;98.60
39675;DHT22;27790;50.840;4.386;2023-05-10T13:25:17;19.60;98.20
39675;DHT22;27790;50.840;4.386;2023-05-10T13:27:42;19.70;98.10
39675;DHT22;27790;50.840;4.386;2023-05-10T13:30:08;19.70;97.70
39675;DHT22;27790;50.840;4.386;2023-05-10T13:32:35;19.70;98.00
39675;DHT22;27790;50.840;4.386;2023-05-10T13:35:01;19.70;98.20
39675;DHT22;27790;50.840;4.386;2023-05-10T13:37:29;19.60;97.80
39675;DHT22;27790;50.840;4.386;2023-05-10T13:39:55;19.50;97.80
39675;DHT22;27790;50.840;4.386;2023-05-10T13:42:22;19.50;98.00
39675;DHT22;27790;50.840;4.386;2023-05-10T13:44:48;19.50;97.90
39675;DHT22;27790;50.840;4.386;2023-05-10T13:47:14;19.60;97.60
39675;DHT22;27790;50.840;4.386;2023-05-10T13:49:40;19.50;98.00
39675;DHT22;27790;50.840;4.386;2023-05-10T13:52:05;19.60;97.20
39675;DHT22;27790;50.840;4.386;2023-05-10T13:54:37;19.70;96.90
39675;DHT22;27790;50.840;4.386;2023-05-10T13:57:03;19.60;96.90
39675;DHT22;27790;50.840;4.386;2023-05-10T13:59:29;19.50;96.70
39675;DHT22;27790;50.840;4.386;2023-05-10T14:01:57;19.40;97.00
39675;DHT22;27790;50.840;4.386;2023-05-10T14:04:23;19.40;98.10
39675;DHT22;27790;50.840;4.386;2023-05-10T14:06:49;19.30;98.50
39675;DHT22;27790;50.840;4.386;2023-05-10T14:09:14;19.30;98.20
39675;DHT22;27790;50.840;4.386;2023-05-10T14:11:40;19.30;98.10
39675;DHT22;27790;50.840;4.386;2023-05-10T14:14:09;19.20;98.50
39675;DHT22;27790;50.840;4.386;2023-05-10T14:16:34;19.00;98.00
39675;DHT22;27790;50.840;4.386;2023-05-10T14:19:00;19.00;98.70
39675;DHT22;27790;50.840;4.386;2023-05-10T14:21:25;18.70;98.50
39675;DHT22;27790;50.840;4.386;2023-05-10T14:23:51;18.70;98.60
39675;DHT22;27790;50.840;4.386;2023-05-10T14:26:17;18.80;98.40
39675;DHT22;27790;50.840;4.386;2023-05-10T14:28:42;18.80;98.30
39675;DHT22;27790;50.840;4.386;2023-05-10T14:31:08;18.90;98.50
39675;DHT22;27790;50.840;4.386;2023-05-10T14:33:33;19.10;98.50
39675;DHT22;27790;50.840;4.386;2023-05-10T14:35:59;19.20;98.40
39675;DHT22;27790;50.840;4.386;2023-05-10T14:38:25;19.20;98.30
39675;DHT22;27790;50.840;4.386;2023-05-10T14:40:52;19.30;98.00
39675;DHT22;27790;50.840;4.386;2023-05-10T14:43:17;19.30;97.10
39675;DHT22;27790;50.840;4.386;2023-05-10T14:45:43;19.20;97.40
39675;DHT22;27790;50.840;4.386;2023-05-10T14:48:08;18.90;98.10
39675;DHT22;27790;50.840;4.386;2023-05-10T14:50:37;18.80;98.20
39675;DHT22;27790;50.840;4.386;2023-05-10T14:53:04;18.60;98.70
39675;DHT22;27790;50.840;4.386;2023-05-10T14:55:29;18.40;99.20
39675;DHT22;27790;50.840;4.386;2023-05-10T14:57:55;18.40;99.40
39675;DHT22;27790;50.840;4.386;2023-05-10T15:00:21;18.30;99.20
39675;DHT22;27790;50.840;4.386;2023-05-10T15:02:47;18.30;99.70
39675;DHT22;27790;50.840;4.386;2023-05-10T15:05:13;18.20;99.30
39675;DHT22;27790;50.840;4.386;2023-05-10T15:07:39;18.10;99.20
39675;DHT22;27790;50.840;4.386;2023-05-10T15:10:05;17.90;99.30
39675;DHT22;27790;50.840;4.386;2023-05-10T15:12:31;17.70;99.90
39675;DHT22;27790;50.840;4.386;2023-05-10T15:14:57;17.60;99.90
39675;DHT22;27790;50.840;4.386;2023-05-10T15:17:22;17.40;99.90
39675;DHT22;27790;50.840;4.386;2023-05-10T15:19:48;17.10;99.90
39675;DHT22;27790;50.840;4.386;2023-05-10T15:22:14;17.00;99.90
39675;DHT22;27790;50.840;4.386;2023-05-10T15:24:40;17.00;99.80
39675;DHT22;27790;50.840;4.386;2023-05-10T15:27:06;16.90;99.10
39675;DHT22;27790;50.840;4.386;2023-05-10T15:29:31;16.90;99.30
39675;DHT22;27790;50.840;4.386;2023-05-10T15:31:57;17.00;99.30
39675;DHT22;27790;50.840;4.386;2023-05-10T15:34:23;17.10;98.40
39675;DHT22;27790;50.840;4.386;2023-05-10T15:36:48;17.20;98.40
39675;DHT22;27790;50.840;4.386;2023-05-10T15:39:14;17.20;97.90
39675;DHT22;27790;50.840;4.386;2023-05-10T15:41:40;17.30;96.60
39675;DHT22;27790;50.840;4.386;2023-05-10T15:44:05;17.40;97.30
39675;DHT22;27790;50.840;4.386;2023-05-10T15:46:31;17.50;97.30
39675;DHT22;27790;50.840;4.386;2023-05-10T15:48:57;17.60;96.80
39675;DHT22;27790;50.840;4.386;2023-05-10T15:51:24;17.80;97.00
39675;DHT22;27790;50.840;4.386;2023-05-10T15:53:50;17.90;96.10
39675;DHT22;27790;50.840;4.386;2023-05-10T15:56:16;17.90;95.30
39675;DHT22;27790;50.840;4.386;2023-05-10T15:58:41;17.90;95.30
39675;DHT22;27790;50.840;4.386;2023-05-10T16:01:09;18.00;95.30
39675;DHT22;27790;50.840;4.386;2023-05-10T16:03:35;18.10;95.00
39675;DHT22;27790;50.840;4.386;2023-05-10T16:06:00;18.10;94.00
39675;DHT22;27790;50.840;4.386;2023-05-10T16:08:27;18.10;94.30